createdAt,value
2019-03-29T00:00:08.585Z,21.00
2019-03-29T00:02:37.015Z,22.77
2019-03-29T00:05:05.717Z,22.20
2019-03-29T00:07:39.842Z,22.07
2019-03-29T00:10:06.346Z,21.68
2019-03-29T00:12:34.785Z,20.37
2019-03-29T00:15:03.392Z,22.70
2019-03-29T00:17:31.819Z,22.05
2019-03-29T00:20:00.338Z,22.45
2019-03-29T00:22:28.783Z,21.57
2019-03-29T00:24:57.232Z,21.17
2019-03-29T00:27:25.714Z,21.48
2019-03-29T00:29:54.143Z,21.65
2019-03-29T00:32:22.573Z,21.23
2019-03-29T00:34:51.016Z,21.27
2019-03-29T00:37:19.506Z,20.95
2019-03-29T00:39:47.955Z,21.15
2019-03-29T00:42:17.160Z,20.65
2019-03-29T00:44:45.898Z,20.02
2019-03-29T00:47:14.361Z,20.25
2019-03-29T00:49:43.109Z,20.62
2019-03-29T00:52:11.608Z,18.90
2019-03-29T00:54:40.062Z,19.52
2019-03-29T00:57:08.496Z,20.85
2019-03-29T00:59:36.942Z,18.82
2019-03-29T01:02:05.366Z,19.15
2019-03-29T01:04:33.802Z,20.90
2019-03-29T01:07:02.261Z,19.85
2019-03-29T01:09:30.881Z,19.05
2019-03-29T01:11:59.438Z,18.25
2019-03-29T01:14:27.861Z,19.85
2019-03-29T01:16:56.304Z,18.62
2019-03-29T01:19:24.753Z,19.05
2019-03-29T01:21:53.203Z,19.05
2019-03-29T01:24:21.672Z,18.92
2019-03-29T01:26:50.099Z,17.77
2019-03-29T01:29:18.529Z,18.50
2019-03-29T01:31:47.002Z,18.25
2019-03-29T01:34:15.426Z,18.87
2019-03-29T01:36:43.862Z,17.70
2019-03-29T01:39:12.321Z,18.55
2019-03-29T01:41:40.743Z,17.82
2019-03-29T01:44:09.208Z,19.25
2019-03-29T01:46:38.108Z,18.52
2019-03-29T01:49:06.856Z,18.20
2019-03-29T01:51:35.313Z,17.00
2019-03-29T01:54:04.225Z,19.60
2019-03-29T01:56:32.848Z,19.32
2019-03-29T01:59:01.286Z,17.60
2019-03-29T02:01:29.713Z,18.12
2019-03-29T02:03:58.157Z,17.40
2019-03-29T02:06:26.613Z,17.65
2019-03-29T02:08:55.052Z,19.05
2019-03-29T02:11:23.566Z,18.77
2019-03-29T02:13:52.173Z,18.20
2019-03-29T02:16:20.614Z,17.77
2019-03-29T02:18:49.061Z,19.95
2019-03-29T02:21:17.889Z,19.00
2019-03-29T02:23:46.318Z,17.90
2019-03-29T02:26:14.758Z,18.30
2019-03-29T02:28:43.280Z,17.92
2019-03-29T02:31:11.799Z,19.12
2019-03-29T02:33:40.267Z,18.35
2019-03-29T02:36:08.695Z,18.62
2019-03-29T02:38:54.259Z,17.50
2019-03-29T02:41:07.297Z,17.85
2019-03-29T02:43:35.742Z,17.37
2019-03-29T02:46:05.408Z,17.25
2019-03-29T02:48:33.881Z,16.60
2019-03-29T02:51:02.313Z,17.48
2019-03-29T02:53:30.767Z,16.82
2019-03-29T02:55:59.232Z,16.62
2019-03-29T02:58:29.251Z,17.35
2019-03-29T03:00:57.700Z,16.25
2019-03-29T03:03:26.182Z,15.18
2019-03-29T03:05:54.625Z,16.77
2019-03-29T03:08:23.059Z,16.23
2019-03-29T03:10:51.525Z,15.95
2019-03-29T03:13:19.967Z,16.50
2019-03-29T03:15:48.407Z,16.65
2019-03-29T03:18:16.851Z,15.98
2019-03-29T03:20:45.307Z,16.15
2019-03-29T03:23:13.927Z,16.65
2019-03-29T03:25:42.427Z,16.97
2019-03-29T03:28:10.858Z,17.52
2019-03-29T03:30:39.294Z,17.62
2019-03-29T03:33:07.731Z,17.82
2019-03-29T03:35:36.192Z,16.67
2019-03-29T03:38:04.709Z,16.40
2019-03-29T03:40:33.162Z,17.15
2019-03-29T03:43:01.706Z,17.52
2019-03-29T03:45:31.675Z,17.40
2019-03-29T03:48:00.140Z,16.90
2019-03-29T03:50:38.990Z,17.48
2019-03-29T03:53:07.936Z,18.40
2019-03-29T03:55:38.794Z,18.98
2019-03-29T03:58:07.934Z,17.80
2019-03-29T04:00:53.952Z,17.65
2019-03-29T04:03:23.493Z,18.32
2019-03-29T04:05:52.009Z,18.67
2019-03-29T04:08:20.590Z,18.32
2019-03-29T04:10:49.097Z,18.45
2019-03-29T04:13:17.556Z,19.70
2019-03-29T04:15:46.080Z,20.00
2019-03-29T04:18:16.000Z,19.30
2019-03-29T04:20:44.776Z,19.60
2019-03-29T04:23:13.215Z,19.60
2019-03-29T04:25:41.865Z,16.82
2019-03-29T04:28:10.321Z,19.27
2019-03-29T04:30:38.838Z,18.57
2019-03-29T04:33:11.088Z,18.62
2019-03-29T04:35:37.901Z,21.17
2019-03-29T04:38:06.465Z,20.23
2019-03-29T04:40:34.957Z,21.82
2019-03-29T04:43:03.453Z,22.75
2019-03-29T04:45:31.902Z,23.52
2019-03-29T04:48:00.353Z,22.93
2019-03-29T04:50:28.801Z,23.35
2019-03-29T04:52:57.254Z,23.83
2019-03-29T04:55:25.691Z,25.88
2019-03-29T04:57:54.119Z,25.02
2019-03-29T05:00:22.566Z,25.72
2019-03-29T05:02:51.003Z,25.43
2019-03-29T05:05:19.460Z,26.23
2019-03-29T05:07:47.901Z,26.27
2019-03-29T05:10:21.594Z,27.00
2019-03-29T05:12:46.614Z,26.85
2019-03-29T05:15:15.119Z,28.87
2019-03-29T05:17:43.584Z,27.70
2019-03-29T05:20:12.145Z,27.80
2019-03-29T05:22:40.578Z,29.50
2019-03-29T05:25:09.064Z,30.08
2019-03-29T05:27:37.505Z,28.50
2019-03-29T05:30:06.973Z,31.35
2019-03-29T05:32:35.404Z,29.67
2019-03-29T05:35:05.303Z,30.02
2019-03-29T05:37:33.822Z,30.35
2019-03-29T05:40:02.265Z,30.20
2019-03-29T05:42:30.709Z,30.17
2019-03-29T05:44:59.224Z,30.90
2019-03-29T05:47:27.673Z,31.00
2019-03-29T05:49:56.098Z,29.37
2019-03-29T05:52:24.570Z,28.20
2019-03-29T05:54:53.005Z,29.77
2019-03-29T05:57:21.513Z,30.08
2019-03-29T05:59:49.982Z,29.40
2019-03-29T06:02:18.473Z,29.55
2019-03-29T06:04:46.910Z,28.05
2019-03-29T06:07:15.377Z,26.90
2019-03-29T06:09:43.825Z,28.85
2019-03-29T06:12:12.259Z,28.10
2019-03-29T06:14:40.690Z,28.52
2019-03-29T06:17:09.148Z,29.15
2019-03-29T06:19:37.613Z,29.90
2019-03-29T06:22:06.082Z,29.10
2019-03-29T06:24:34.526Z,29.40
2019-03-29T06:27:02.960Z,30.92
2019-03-29T06:29:31.394Z,29.67
2019-03-29T06:31:59.860Z,30.15
2019-03-29T06:34:28.303Z,29.57
2019-03-29T06:36:58.562Z,29.95
2019-03-29T06:39:29.542Z,30.12
2019-03-29T06:41:57.970Z,31.33
2019-03-29T06:44:26.436Z,30.68
2019-03-29T06:46:54.885Z,30.77
2019-03-29T06:49:23.306Z,31.87
2019-03-29T06:51:51.760Z,32.53
2019-03-29T06:54:20.264Z,32.93
2019-03-29T06:57:08.069Z,33.73
2019-03-29T06:59:36.587Z,32.63
2019-03-29T07:02:05.014Z,32.58
2019-03-29T07:04:33.465Z,33.33
2019-03-29T07:07:01.893Z,34.43
2019-03-29T07:09:30.370Z,32.25
2019-03-29T07:11:58.875Z,32.10
2019-03-29T07:14:27.328Z,30.48
2019-03-29T07:16:55.785Z,28.83
2019-03-29T07:19:24.253Z,28.45
2019-03-29T07:21:52.754Z,28.17
2019-03-29T07:24:21.197Z,26.30
2019-03-29T07:26:49.647Z,25.70
2019-03-29T07:29:18.158Z,26.40
2019-03-29T07:31:55.415Z,24.63
2019-03-29T07:34:23.863Z,24.52
2019-03-29T07:36:52.317Z,25.32
2019-03-29T07:39:20.738Z,23.75
2019-03-29T07:41:49.269Z,24.12
2019-03-29T07:44:17.702Z,24.27
2019-03-29T07:46:46.137Z,24.40
2019-03-29T07:49:14.601Z,24.87
2019-03-29T07:51:43.129Z,24.37
2019-03-29T07:54:11.630Z,24.50
2019-03-29T07:56:40.076Z,25.00
2019-03-29T07:59:08.511Z,25.88
2019-03-29T08:01:36.943Z,26.57
2019-03-29T08:04:05.480Z,25.35
2019-03-29T08:06:33.929Z,26.82
2019-03-29T08:09:02.435Z,28.02
2019-03-29T08:11:40.151Z,28.10
2019-03-29T08:14:01.110Z,28.70
2019-03-29T08:16:29.568Z,28.45
2019-03-29T08:18:58.087Z,28.87
2019-03-29T08:21:26.528Z,26.85
2019-03-29T08:23:55.072Z,26.95
2019-03-29T08:26:24.593Z,26.87
2019-03-29T08:28:53.052Z,25.97
2019-03-29T08:31:21.523Z,27.35
2019-03-29T08:33:49.985Z,27.15
2019-03-29T08:36:18.428Z,27.50
2019-03-29T08:38:46.875Z,27.32
2019-03-29T08:41:15.312Z,25.17
2019-03-29T08:44:03.146Z,25.68
2019-03-29T08:46:31.622Z,24.52
2019-03-29T08:49:00.074Z,24.18
2019-03-29T08:51:28.657Z,23.62
2019-03-29T08:53:57.108Z,22.93
2019-03-29T08:56:25.566Z,23.22
2019-03-29T08:58:54.003Z,22.60
2019-03-29T09:01:22.445Z,20.75
2019-03-29T09:04:04.599Z,21.80
2019-03-29T09:06:52.603Z,21.27
2019-03-29T09:09:12.550Z,22.37
2019-03-29T09:11:41.063Z,22.37
2019-03-29T09:14:09.529Z,21.07
2019-03-29T09:16:38.048Z,20.90
2019-03-29T09:19:06.515Z,22.27
2019-03-29T09:21:34.953Z,22.10
2019-03-29T09:24:03.394Z,22.55
2019-03-29T09:26:31.872Z,22.98
2019-03-29T09:29:00.318Z,22.48
2019-03-29T09:31:28.782Z,22.10
2019-03-29T09:33:58.707Z,23.20
2019-03-29T09:36:27.342Z,22.48
2019-03-29T09:38:55.845Z,22.73
2019-03-29T09:41:24.542Z,23.15
2019-03-29T09:43:54.496Z,22.60
2019-03-29T09:46:23.380Z,23.50
2019-03-29T09:48:51.895Z,22.98
2019-03-29T09:51:20.392Z,21.12
2019-03-29T09:53:48.881Z,22.95
2019-03-29T09:56:17.311Z,21.95
2019-03-29T09:58:45.757Z,24.75
2019-03-29T10:01:14.320Z,22.75
2019-03-29T10:03:42.797Z,25.23
2019-03-29T10:06:30.592Z,24.40
2019-03-29T10:08:59.040Z,24.95
2019-03-29T10:11:27.482Z,25.00
2019-03-29T10:13:55.991Z,24.25
2019-03-29T10:16:25.904Z,24.18
2019-03-29T10:18:54.591Z,24.30
2019-03-29T10:21:23.086Z,24.87
2019-03-29T10:23:51.532Z,25.00
2019-03-29T10:26:28.631Z,25.05
2019-03-29T10:28:57.102Z,24.30
2019-03-29T10:31:32.359Z,24.30
2019-03-29T10:33:57.248Z,23.40
2019-03-29T10:36:25.680Z,23.65
2019-03-29T10:38:54.122Z,25.23
2019-03-29T10:41:22.960Z,24.92
2019-03-29T10:43:51.453Z,24.98
2019-03-29T10:46:19.887Z,24.80
2019-03-29T10:48:48.318Z,25.32
2019-03-29T10:51:16.781Z,26.00
2019-03-29T10:53:45.209Z,24.75
2019-03-29T10:56:13.668Z,24.77
2019-03-29T10:58:44.778Z,25.62
2019-03-29T11:01:12.434Z,25.70
2019-03-29T11:03:40.903Z,25.32
2019-03-29T11:06:09.348Z,25.15
2019-03-29T11:08:37.810Z,24.12
2019-03-29T11:11:06.242Z,25.08
2019-03-29T11:13:34.674Z,24.43
2019-03-29T11:16:04.744Z,24.23
2019-03-29T11:22:11.398Z,25.32
2019-03-29T11:24:39.911Z,25.52
2019-03-29T11:37:58.825Z,24.52
2019-03-29T11:40:27.273Z,24.20
2019-03-29T11:42:55.789Z,24.72
2019-03-29T11:45:24.241Z,25.70
2019-03-29T11:48:06.846Z,24.85
2019-03-29T11:50:22.857Z,24.43
2019-03-29T11:52:51.318Z,25.52
2019-03-29T11:55:21.444Z,24.77
2019-03-29T11:57:49.902Z,25.90
2019-03-29T12:00:21.817Z,25.12
2019-03-29T12:02:50.252Z,23.77
2019-03-29T12:05:18.785Z,23.00
2019-03-29T12:07:47.219Z,25.05
2019-03-29T12:10:15.649Z,25.55
2019-03-29T12:12:44.159Z,25.55
2019-03-29T12:15:12.794Z,25.20
2019-03-29T12:17:41.247Z,24.75
2019-03-29T12:20:09.910Z,26.40
2019-03-29T12:22:38.374Z,25.02
2019-03-29T12:25:07.331Z,25.88
2019-03-29T12:27:35.800Z,25.57
2019-03-29T12:30:07.553Z,26.75
2019-03-29T12:32:36.086Z,26.02
2019-03-29T12:35:09.766Z,26.45
2019-03-29T12:37:36.798Z,25.88
2019-03-29T12:40:07.493Z,26.05
2019-03-29T12:42:35.944Z,26.17
2019-03-29T12:45:05.817Z,26.55
2019-03-29T12:47:34.289Z,25.48
2019-03-29T12:50:02.806Z,26.33
2019-03-29T12:52:31.249Z,27.02
2019-03-29T12:54:59.712Z,28.12
2019-03-29T12:57:28.229Z,27.02
2019-03-29T12:59:56.673Z,27.62
2019-03-29T13:02:25.121Z,27.85
2019-03-29T13:04:53.604Z,28.40
2019-03-29T13:07:22.265Z,28.35
2019-03-29T13:09:50.784Z,28.73
2019-03-29T13:12:19.684Z,27.45
2019-03-29T13:14:48.324Z,27.67
2019-03-29T13:17:17.067Z,28.27
2019-03-29T13:19:47.121Z,27.30
2019-03-29T13:22:15.796Z,28.57
2019-03-29T13:24:44.218Z,26.12
2019-03-29T13:27:12.958Z,28.07
2019-03-29T13:29:41.466Z,25.72
2019-03-29T13:32:09.916Z,27.02
2019-03-29T13:34:38.384Z,26.42
2019-03-29T13:37:06.830Z,28.20
2019-03-29T13:39:35.262Z,28.35
2019-03-29T13:42:03.778Z,28.12
2019-03-29T13:44:32.218Z,27.10
2019-03-29T13:47:00.645Z,28.27
2019-03-29T13:49:29.113Z,28.07
2019-03-29T13:51:57.547Z,28.17
2019-03-29T13:54:25.998Z,27.25
2019-03-29T13:56:54.507Z,27.20
2019-03-29T13:59:24.215Z,27.30
2019-03-29T14:01:52.649Z,27.60
2019-03-29T14:04:21.265Z,27.32
2019-03-29T14:06:49.729Z,27.67
2019-03-29T14:09:37.563Z,26.30
2019-03-29T14:12:05.981Z,26.12
2019-03-29T14:14:38.339Z,27.42
2019-03-29T14:17:06.275Z,26.45
2019-03-29T14:19:34.749Z,26.85
2019-03-29T14:22:03.193Z,25.35
2019-03-29T14:24:31.669Z,25.35
2019-03-29T14:27:00.120Z,25.57
2019-03-29T14:29:28.633Z,26.60
2019-03-29T14:31:57.107Z,26.70
2019-03-29T14:34:46.411Z,25.95
2019-03-29T14:37:15.084Z,24.82
2019-03-29T14:39:44.215Z,26.05
2019-03-29T14:42:12.996Z,26.27
2019-03-29T14:44:51.695Z,25.97
2019-03-29T14:47:11.727Z,26.00
2019-03-29T14:49:40.154Z,26.42
2019-03-29T14:52:08.591Z,26.70
2019-03-29T14:54:37.065Z,27.40
2019-03-29T14:57:05.774Z,26.20
2019-03-29T14:59:34.318Z,24.45
2019-03-29T15:02:02.824Z,25.15
2019-03-29T15:04:31.258Z,27.40
2019-03-29T15:06:59.774Z,23.62
2019-03-29T15:09:28.282Z,25.20
2019-03-29T15:11:56.803Z,26.45
2019-03-29T15:14:25.229Z,26.62
2019-03-29T15:16:53.687Z,26.95
2019-03-29T15:19:22.157Z,24.85
2019-03-29T15:21:50.601Z,27.00
2019-03-29T15:24:19.125Z,27.05
2019-03-29T15:26:47.575Z,26.00
2019-03-29T15:29:16.027Z,26.23
2019-03-29T15:31:44.513Z,27.40
2019-03-29T15:34:12.946Z,27.75
2019-03-29T15:36:41.396Z,27.02
2019-03-29T15:39:10.005Z,28.15
2019-03-29T15:41:38.422Z,26.52
2019-03-29T15:44:06.870Z,26.95
2019-03-29T15:46:35.332Z,25.75
2019-03-29T15:49:03.788Z,26.02
2019-03-29T15:51:32.317Z,26.70
2019-03-29T15:54:00.746Z,28.57
2019-03-29T15:56:29.188Z,26.55
2019-03-29T15:58:57.665Z,27.45
2019-03-29T16:01:26.118Z,27.73
2019-03-29T16:03:54.572Z,27.73
2019-03-29T16:06:22.998Z,27.60
2019-03-29T16:08:51.434Z,28.52
2019-03-29T16:11:22.410Z,28.38
2019-03-29T16:13:50.052Z,28.40
2019-03-29T16:16:18.573Z,26.80
2019-03-29T16:18:47.011Z,28.12
2019-03-29T16:21:15.446Z,29.10
2019-03-29T16:23:43.884Z,27.75
2019-03-29T16:26:12.322Z,28.17
2019-03-29T16:28:40.750Z,27.90
2019-03-29T16:31:09.280Z,27.55
2019-03-29T16:33:37.714Z,28.42
2019-03-29T16:36:06.173Z,27.73
2019-03-29T16:38:34.629Z,28.65
2019-03-29T16:41:03.078Z,28.87
2019-03-29T16:43:31.544Z,27.90
2019-03-29T16:46:00.315Z,28.32
2019-03-29T16:48:28.773Z,28.32
2019-03-29T16:50:57.194Z,28.95
2019-03-29T16:53:25.671Z,28.32
2019-03-29T16:55:54.118Z,29.10
2019-03-29T16:58:22.559Z,27.98
2019-03-29T17:00:51.016Z,28.12
2019-03-29T17:03:19.438Z,28.85
2019-03-29T17:05:47.877Z,28.30
2019-03-29T17:08:16.332Z,27.27
2019-03-29T17:10:44.790Z,29.65
2019-03-29T17:13:13.206Z,30.45
2019-03-29T17:15:41.661Z,29.70
2019-03-29T17:18:10.109Z,28.00
2019-03-29T17:20:38.553Z,28.42
2019-03-29T17:23:06.982Z,27.77
2019-03-29T17:25:35.418Z,27.40
2019-03-29T17:28:03.842Z,28.15
2019-03-29T17:30:38.668Z,27.80
2019-03-29T17:33:07.120Z,27.58
2019-03-29T17:35:35.619Z,28.25
2019-03-29T17:38:04.530Z,28.67
2019-03-29T17:40:32.958Z,28.77
2019-03-29T17:43:01.466Z,29.72
2019-03-29T17:45:29.925Z,29.25
2019-03-29T17:47:58.375Z,29.12
2019-03-29T17:50:26.829Z,28.40
2019-03-29T17:52:55.257Z,30.00
2019-03-29T17:55:23.714Z,29.52
2019-03-29T17:57:52.160Z,30.05
2019-03-29T18:00:24.816Z,29.90
2019-03-29T18:02:53.501Z,29.10
2019-03-29T18:05:22.870Z,26.87
2019-03-29T18:07:51.405Z,28.32
2019-03-29T18:10:20.210Z,28.70
2019-03-29T18:12:48.881Z,30.60
2019-03-29T18:15:17.895Z,32.17
2019-03-29T18:17:46.573Z,30.30
2019-03-29T18:20:16.135Z,32.75
2019-03-29T18:22:44.656Z,32.67
2019-03-29T18:25:13.235Z,32.60
2019-03-29T18:27:41.771Z,32.53
2019-03-29T18:30:12.056Z,32.17
2019-03-29T18:32:40.502Z,33.85
2019-03-29T18:35:09.992Z,33.83
2019-03-29T18:37:38.867Z,33.13
2019-03-29T18:40:10.374Z,35.38
2019-03-29T18:42:38.802Z,33.15
2019-03-29T18:45:28.125Z,33.73
2019-03-29T18:47:56.646Z,32.98
2019-03-29T18:50:25.051Z,33.70
2019-03-29T18:52:53.510Z,34.08
2019-03-29T18:55:21.939Z,34.80
2019-03-29T18:57:50.396Z,33.63
2019-03-29T19:00:30.106Z,33.02
2019-03-29T19:02:58.549Z,34.33
2019-03-29T19:05:28.028Z,33.90
2019-03-29T19:07:56.458Z,33.58
2019-03-29T19:10:24.924Z,33.40
2019-03-29T19:12:53.359Z,33.02
2019-03-29T19:15:22.176Z,32.95
2019-03-29T19:17:50.835Z,35.48
2019-03-29T19:20:27.344Z,33.60
2019-03-29T19:22:49.541Z,36.80
2019-03-29T19:25:18.055Z,34.00
2019-03-29T19:27:46.512Z,34.55
2019-03-29T19:30:16.064Z,34.20
2019-03-29T19:32:45.563Z,36.05
2019-03-29T19:35:16.855Z,35.88
2019-03-29T19:37:47.235Z,34.85
2019-03-29T19:40:17.725Z,34.58
2019-03-29T19:42:47.995Z,34.73
2019-03-29T19:45:18.222Z,36.23
2019-03-29T19:47:50.226Z,34.73
2019-03-29T19:50:22.236Z,36.33
2019-03-29T19:52:54.548Z,37.30
2019-03-29T19:55:23.321Z,37.40
2019-03-29T19:57:51.774Z,36.25
2019-03-29T20:00:23.372Z,43.05
2019-03-29T20:02:51.955Z,39.63
2019-03-29T20:05:25.821Z,42.10
2019-03-29T20:07:55.207Z,37.95
2019-03-29T20:10:23.798Z,41.60
2019-03-29T20:12:52.298Z,42.62
2019-03-29T20:15:20.759Z,43.60
2019-03-29T20:17:49.271Z,42.53
2019-03-29T20:20:22.822Z,43.90
2019-03-29T20:22:52.609Z,43.85
2019-03-29T20:25:21.068Z,46.30
2019-03-29T20:27:49.513Z,43.28
2019-03-29T20:30:18.136Z,45.23
2019-03-29T20:32:46.580Z,43.48
2019-03-29T20:35:15.103Z,44.38
2019-03-29T20:37:44.112Z,44.67
2019-03-29T20:40:12.695Z,45.05
2019-03-29T20:42:41.136Z,44.15
2019-03-29T20:45:09.723Z,44.75
2019-03-29T20:47:42.355Z,42.50
2019-03-29T20:50:09.600Z,45.90
2019-03-29T20:52:38.064Z,45.03
2019-03-29T20:55:07.370Z,48.15
2019-03-29T20:57:35.831Z,43.83
2019-03-29T21:00:08.155Z,43.08
2019-03-29T21:02:36.690Z,44.00
2019-03-29T21:05:08.568Z,48.92
2019-03-29T21:07:37.100Z,48.15
2019-03-29T21:10:55.520Z,43.30
2019-03-29T21:13:32.961Z,44.03
2019-03-29T21:16:57.142Z,42.98
2019-03-29T21:19:55.718Z,42.70
2019-03-29T21:22:40.249Z,42.58
2019-03-29T21:25:19.280Z,42.85
2019-03-29T21:27:50.695Z,43.85
2019-03-29T21:30:19.475Z,42.67
2019-03-29T21:32:47.925Z,43.75
2019-03-29T21:35:28.322Z,42.38
2019-03-29T21:37:57.071Z,42.30
2019-03-29T21:40:25.566Z,42.48
2019-03-29T21:42:54.022Z,44.67
2019-03-29T21:45:28.590Z,42.17
2019-03-29T21:48:02.281Z,44.00
2019-03-29T21:50:22.960Z,43.17
2019-03-29T21:52:51.410Z,42.67
2019-03-29T21:55:19.869Z,41.60
2019-03-29T21:57:48.364Z,42.15
2019-03-29T22:00:17.642Z,42.45
2019-03-29T22:02:46.172Z,42.50
2019-03-29T22:05:14.700Z,41.88
2019-03-29T22:07:43.199Z,42.45
2019-03-29T22:10:12.419Z,42.13
2019-03-29T22:12:43.068Z,43.38
2019-03-29T22:15:11.321Z,43.60
2019-03-29T22:17:39.762Z,44.35
2019-03-29T22:20:09.060Z,41.77
2019-03-29T22:22:39.514Z,42.05
2019-03-29T22:25:08.672Z,42.98
2019-03-29T22:27:37.305Z,43.40
2019-03-29T22:30:09.947Z,43.58
2019-03-29T22:32:38.383Z,41.53
2019-03-29T22:35:07.456Z,43.10
2019-03-29T22:37:35.907Z,41.85
2019-03-29T22:40:06.974Z,43.55
2019-03-29T22:42:35.406Z,44.33
2019-03-29T22:45:05.529Z,42.20
2019-03-29T22:47:33.959Z,44.48
2019-03-29T22:50:02.401Z,43.00
2019-03-29T22:52:30.909Z,42.25
2019-03-29T22:54:59.385Z,44.33
2019-03-29T22:57:27.832Z,42.48
2019-03-29T22:59:57.283Z,44.20
2019-03-29T23:02:25.718Z,46.50
2019-03-29T23:04:54.176Z,45.67
2019-03-29T23:07:22.614Z,44.60
2019-03-29T23:09:51.042Z,45.50
2019-03-29T23:12:19.523Z,43.60
2019-03-29T23:14:47.997Z,44.85
2019-03-29T23:17:16.520Z,44.08
2019-03-29T23:19:45.026Z,43.55
2019-03-29T23:22:32.052Z,44.20
2019-03-29T23:25:00.590Z,43.73
2019-03-29T23:27:29.022Z,45.20
2019-03-29T23:29:57.479Z,44.65
2019-03-29T23:32:25.933Z,44.48
2019-03-29T23:34:54.377Z,43.63
2019-03-29T23:37:22.837Z,45.73
2019-03-29T23:39:51.258Z,44.77
2019-03-29T23:42:19.722Z,44.63
2019-03-29T23:44:48.185Z,45.00
2019-03-29T23:47:16.644Z,44.75
2019-03-29T23:49:45.142Z,46.85
2019-03-29T23:52:13.583Z,43.80
2019-03-29T23:54:42.045Z,44.42
2019-03-29T23:57:10.496Z,43.45
2019-03-29T23:59:38.937Z,41.98
